createdAt,value
2023-03-12T00:01:24.640Z,15.20
2023-03-12T00:04:30.193Z,13.55
2023-03-12T00:07:36.753Z,12.73
2023-03-12T00:10:42.152Z,12.75
2023-03-12T00:13:55.645Z,16.98
2023-03-12T00:17:01.121Z,15.18
2023-03-12T00:20:07.406Z,10.05
2023-03-12T00:23:12.725Z,8.82
2023-03-12T00:26:19.942Z,12.05
2023-03-12T00:29:25.536Z,6.68
2023-03-12T00:32:35.564Z,11.82
2023-03-12T00:35:41.065Z,9.93
2023-03-12T00:38:46.650Z,8.23
2023-03-12T00:41:52.259Z,6.57
2023-03-12T00:44:57.869Z,8.52
2023-03-12T00:48:04.424Z,10.32
2023-03-12T00:51:10.255Z,6.72
2023-03-12T00:54:15.952Z,8.85
2023-03-12T00:57:21.879Z,8.77
2023-03-12T01:00:27.553Z,5.65
2023-03-12T01:03:33.459Z,9.05
2023-03-12T01:06:38.975Z,7.20
2023-03-12T01:09:44.342Z,5.75
2023-03-12T01:12:50.829Z,6.38
2023-03-12T01:15:56.389Z,8.40
2023-03-12T01:19:03.089Z,5.65
2023-03-12T01:22:08.465Z,6.63
2023-03-12T01:25:13.990Z,5.57
2023-03-12T01:28:19.413Z,5.75
2023-03-12T01:31:25.677Z,6.18
2023-03-12T01:34:33.667Z,5.15
2023-03-12T01:37:39.200Z,6.55
2023-03-12T01:40:45.523Z,5.75
2023-03-12T01:43:51.304Z,7.18
2023-03-12T01:46:56.875Z,4.07
2023-03-12T01:50:04.992Z,5.50
2023-03-12T01:53:11.800Z,5.68
2023-03-12T01:56:19.779Z,5.40
2023-03-12T01:59:42.777Z,5.72
2023-03-12T02:02:50.085Z,3.92
2023-03-12T02:06:11.785Z,5.72
2023-03-12T02:09:20.386Z,9.65
2023-03-12T02:12:27.214Z,8.65
2023-03-12T02:15:35.975Z,5.55
2023-03-12T02:18:41.505Z,5.38
2023-03-12T02:21:47.268Z,7.05
2023-03-12T02:25:31.472Z,5.35
2023-03-12T02:28:43.050Z,6.40
2023-03-12T02:31:55.522Z,6.30
2023-03-12T02:38:29.726Z,9.82
2023-03-12T02:41:49.061Z,5.30
2023-03-12T02:44:54.673Z,5.35
2023-03-12T02:48:00.282Z,6.93
2023-03-12T02:51:06.167Z,4.90
2023-03-12T02:54:13.499Z,6.55
2023-03-12T02:57:19.264Z,5.03
2023-03-12T03:00:25.517Z,4.50
2023-03-12T03:03:32.793Z,4.95
2023-03-12T03:06:41.889Z,4.15
2023-03-12T03:09:48.181Z,4.07
2023-03-12T03:12:53.637Z,2.65
2023-03-12T03:16:00.031Z,4.03
2023-03-12T03:19:05.897Z,4.47
2023-03-12T03:22:11.474Z,5.47
2023-03-12T03:25:18.608Z,3.58
2023-03-12T03:28:26.368Z,4.97
2023-03-12T03:31:32.114Z,2.67
2023-03-12T03:34:37.921Z,5.13
2023-03-12T03:37:43.870Z,6.03
2023-03-12T03:40:49.736Z,3.42
2023-03-12T03:43:59.040Z,5.22
2023-03-12T03:47:05.679Z,3.13
2023-03-12T03:50:11.769Z,4.03
2023-03-12T03:53:19.906Z,2.20
2023-03-12T03:56:26.500Z,3.30
2023-03-12T03:59:32.538Z,2.65
2023-03-12T04:02:37.964Z,4.53
2023-03-12T04:05:45.852Z,2.65
2023-03-12T04:08:51.113Z,2.20
2023-03-12T04:11:58.843Z,3.13
2023-03-12T04:15:04.494Z,2.83
2023-03-12T04:18:10.109Z,2.40
2023-03-12T04:21:15.966Z,6.97
2023-03-12T04:24:22.425Z,5.70
2023-03-12T04:27:28.324Z,3.03
2023-03-12T04:30:34.215Z,3.00
2023-03-12T04:33:41.053Z,2.70
2023-03-12T04:36:48.468Z,4.05
2023-03-12T04:39:53.968Z,3.40
2023-03-12T04:42:59.448Z,3.60
2023-03-12T04:46:05.750Z,2.95
2023-03-12T04:49:11.236Z,2.80
2023-03-12T04:52:18.029Z,3.00
2023-03-12T04:55:23.500Z,3.65
2023-03-12T04:58:29.478Z,5.20
2023-03-12T05:01:37.395Z,10.23
2023-03-12T05:04:47.984Z,6.50
2023-03-12T05:07:53.272Z,3.50
2023-03-12T05:10:58.880Z,4.32
2023-03-12T05:14:05.339Z,4.68
2023-03-12T05:17:11.065Z,5.38
2023-03-12T05:20:18.182Z,5.07
2023-03-12T05:23:25.467Z,3.35
2023-03-12T05:26:33.451Z,4.90
2023-03-12T05:29:49.571Z,2.65
2023-03-12T05:32:55.250Z,3.58
2023-03-12T05:36:01.928Z,5.57
2023-03-12T05:39:08.055Z,5.93
2023-03-12T05:42:15.151Z,3.88
2023-03-12T05:45:20.964Z,3.50
2023-03-12T05:48:30.648Z,3.13
2023-03-12T05:51:36.935Z,7.63
2023-03-12T05:54:41.886Z,3.38
2023-03-12T05:57:47.898Z,2.97
2023-03-12T06:00:53.576Z,2.88
2023-03-12T06:03:59.588Z,3.60
2023-03-12T06:07:05.499Z,3.42
2023-03-12T06:10:12.970Z,2.33
2023-03-12T06:13:18.411Z,6.70
2023-03-12T06:16:26.595Z,9.07
2023-03-12T06:19:32.056Z,6.07
2023-03-12T06:22:37.552Z,4.55
2023-03-12T06:25:46.002Z,3.08
2023-03-12T06:28:53.060Z,2.85
2023-03-12T06:31:58.556Z,3.47
2023-03-12T06:35:05.683Z,10.38
2023-03-12T06:38:10.590Z,3.30
2023-03-12T06:41:19.420Z,4.90
2023-03-12T06:44:25.478Z,3.70
2023-03-12T06:47:31.197Z,3.75
2023-03-12T06:50:36.691Z,4.13
2023-03-12T06:53:42.809Z,7.72
2023-03-12T06:56:48.251Z,3.63
2023-03-12T06:59:53.690Z,3.38
2023-03-12T07:02:59.253Z,5.80
2023-03-12T07:06:05.261Z,5.63
2023-03-12T07:09:11.022Z,4.47
2023-03-12T07:12:16.909Z,8.00
2023-03-12T07:15:23.782Z,6.50
2023-03-12T07:18:29.655Z,6.22
2023-03-12T07:21:35.256Z,7.82
2023-03-12T07:24:40.993Z,10.57
2023-03-12T07:27:46.400Z,10.40
2023-03-12T07:30:51.834Z,8.43
2023-03-12T07:33:57.398Z,12.48
2023-03-12T07:37:03.524Z,10.02
2023-03-12T07:40:10.843Z,10.13
2023-03-12T07:43:16.177Z,6.93
2023-03-12T07:46:21.499Z,9.95
2023-03-12T07:49:27.766Z,9.30
2023-03-12T07:52:33.006Z,5.13
2023-03-12T07:55:38.556Z,4.28
2023-03-12T07:58:43.828Z,4.45
2023-03-12T08:01:50.259Z,3.20
2023-03-12T08:04:56.395Z,7.45
2023-03-12T08:08:02.470Z,6.25
2023-03-12T08:11:09.026Z,6.63
2023-03-12T08:14:14.510Z,7.05
2023-03-12T08:17:20.897Z,4.43
2023-03-12T08:20:26.296Z,3.67
2023-03-12T08:23:31.351Z,5.28
2023-03-12T08:26:36.557Z,6.10
2023-03-12T08:29:42.343Z,4.07
2023-03-12T08:32:47.949Z,5.35
2023-03-12T08:35:53.421Z,4.32
2023-03-12T08:38:59.199Z,3.97
2023-03-12T08:42:05.831Z,3.08
2023-03-12T08:45:13.338Z,3.83
2023-03-12T08:48:18.615Z,5.95
2023-03-12T08:51:23.734Z,4.18
2023-03-12T08:54:28.800Z,3.17
2023-03-12T08:57:34.105Z,6.78
2023-03-12T09:00:39.469Z,8.00
2023-03-12T09:03:46.385Z,3.15
2023-03-12T09:06:51.817Z,2.45
2023-03-12T09:09:57.402Z,5.15
2023-03-12T09:13:04.149Z,6.47
2023-03-12T09:16:09.911Z,4.15
2023-03-12T09:19:15.219Z,3.10
2023-03-12T09:22:30.696Z,4.53
2023-03-12T09:25:36.204Z,5.53
2023-03-12T09:28:42.763Z,3.30
2023-03-12T09:31:48.592Z,3.80
2023-03-12T09:34:54.708Z,2.67
2023-03-12T09:38:00.843Z,2.90
2023-03-12T09:41:06.647Z,5.20
2023-03-12T09:44:34.776Z,2.75
2023-03-12T09:48:02.002Z,5.13
2023-03-12T09:51:21.042Z,3.10
2023-03-12T09:54:47.305Z,2.78
2023-03-12T09:57:54.616Z,3.83
2023-03-12T10:01:10.266Z,2.97
2023-03-12T10:04:21.790Z,4.53
2023-03-12T10:07:40.185Z,3.05
2023-03-12T10:11:10.941Z,3.45
2023-03-12T10:14:24.277Z,2.60
2023-03-12T10:18:01.782Z,3.13
2023-03-12T10:21:14.600Z,2.40
2023-03-12T10:24:41.812Z,2.28
2023-03-12T10:27:48.621Z,3.92
2023-03-12T10:30:58.496Z,3.22
2023-03-12T10:34:16.200Z,3.40
2023-03-12T10:37:29.846Z,3.75
2023-03-12T10:40:39.218Z,2.33
2023-03-12T10:43:45.222Z,2.42
2023-03-12T10:47:17.634Z,2.60
2023-03-12T10:50:26.784Z,3.67
2023-03-12T10:53:52.636Z,3.67
2023-03-12T10:56:58.289Z,3.45
2023-03-12T11:00:12.133Z,3.80
2023-03-12T11:03:22.118Z,3.03
2023-03-12T11:06:30.919Z,3.47
2023-03-12T11:09:36.604Z,8.75
2023-03-12T11:12:53.802Z,2.42
2023-03-12T11:16:17.781Z,10.68
2023-03-12T11:19:30.916Z,7.57
2023-03-12T11:22:36.477Z,3.40
2023-03-12T11:25:42.261Z,6.05
2023-03-12T11:28:51.140Z,5.80
2023-03-12T11:32:00.593Z,5.00
2023-03-12T11:35:15.055Z,3.92
2023-03-12T11:38:31.315Z,4.55
2023-03-12T11:41:46.417Z,4.68
2023-03-12T11:45:10.390Z,3.90
2023-03-12T11:48:27.718Z,4.68
2023-03-12T11:51:48.140Z,4.40
2023-03-12T11:54:59.212Z,6.43
2023-03-12T11:58:22.974Z,4.43
2023-03-12T12:01:57.567Z,7.15
2023-03-12T12:05:22.007Z,4.50
2023-03-12T12:08:54.438Z,5.75
2023-03-12T12:12:19.236Z,5.53
2023-03-12T12:15:53.324Z,6.68
2023-03-12T12:19:21.333Z,4.95
2023-03-12T12:22:41.412Z,4.85
2023-03-12T12:25:59.720Z,4.93
2023-03-12T12:29:36.973Z,3.05
2023-03-12T12:33:01.207Z,4.60
2023-03-12T12:36:10.547Z,4.90
2023-03-12T12:39:35.255Z,4.85
2023-03-12T12:43:00.436Z,6.75
2023-03-12T12:46:13.239Z,6.80
2023-03-12T12:49:33.383Z,2.90
2023-03-12T12:52:39.057Z,5.30
2023-03-12T12:56:07.648Z,3.83
2023-03-12T12:59:31.827Z,5.45
2023-03-12T13:02:41.558Z,4.65
2023-03-12T13:06:05.282Z,3.03
2023-03-12T13:09:16.689Z,9.75
2023-03-12T13:12:30.278Z,4.32
2023-03-12T13:15:40.911Z,6.20
2023-03-12T13:19:26.788Z,9.20
2023-03-12T13:22:49.890Z,5.45
2023-03-12T13:26:07.824Z,8.75
2023-03-12T13:29:33.773Z,5.13
2023-03-12T13:32:59.317Z,4.03
2023-03-12T13:36:12.413Z,7.75
2023-03-12T13:43:15.039Z,13.27
2023-03-12T13:46:42.835Z,5.95
2023-03-12T13:50:06.236Z,6.78
2023-03-12T13:53:20.675Z,7.60
2023-03-12T13:56:32.904Z,5.10
2023-03-12T13:59:45.572Z,5.85
2023-03-12T14:03:02.071Z,5.30
2023-03-12T14:06:14.571Z,5.50
2023-03-12T14:09:26.643Z,3.55
2023-03-12T14:16:12.100Z,7.45
2023-03-12T14:19:25.816Z,4.88
2023-03-12T14:22:38.694Z,5.22
2023-03-12T14:25:47.534Z,5.03
2023-03-12T14:29:00.440Z,5.15
2023-03-12T14:32:15.234Z,5.90
2023-03-12T14:35:33.555Z,5.40
2023-03-12T14:38:44.024Z,5.80
2023-03-12T14:42:00.068Z,7.65
2023-03-12T14:45:08.480Z,3.05
2023-03-12T14:48:13.686Z,4.28
2023-03-12T14:51:31.377Z,8.00
2023-03-12T14:54:39.274Z,5.85
2023-03-12T14:57:45.603Z,4.22
2023-03-12T15:01:04.806Z,7.80
2023-03-12T15:04:17.472Z,6.82
2023-03-12T15:07:30.041Z,4.65
2023-03-12T15:10:35.529Z,5.85
2023-03-12T15:13:41.380Z,4.00
2023-03-12T15:16:47.379Z,4.45
2023-03-12T15:19:55.325Z,4.43
2023-03-12T15:23:04.419Z,6.68
2023-03-12T15:26:21.988Z,8.75
2023-03-12T15:29:29.666Z,4.82
2023-03-12T15:32:35.203Z,5.60
2023-03-12T15:35:44.262Z,3.53
2023-03-12T15:38:53.946Z,8.18
2023-03-12T15:42:10.783Z,5.95
2023-03-12T15:45:26.976Z,3.13
2023-03-12T15:48:42.013Z,6.03
2023-03-12T15:52:03.349Z,7.60
2023-03-12T15:55:14.957Z,9.52
2023-03-12T15:58:32.097Z,5.57
2023-03-12T16:01:53.507Z,5.93
2023-03-12T16:04:58.833Z,11.68
2023-03-12T16:08:16.133Z,5.47
2023-03-12T16:11:24.090Z,7.05
2023-03-12T16:14:33.166Z,8.30
2023-03-12T16:17:38.884Z,6.55
2023-03-12T16:20:44.933Z,9.20
2023-03-12T16:23:50.267Z,6.70
2023-03-12T16:26:58.606Z,6.10
2023-03-12T16:30:04.350Z,3.50
2023-03-12T16:33:15.644Z,8.27
2023-03-12T16:36:21.214Z,5.65
2023-03-12T16:39:30.476Z,4.63
2023-03-12T16:42:36.718Z,6.43
2023-03-12T16:45:44.910Z,8.75
2023-03-12T16:48:53.823Z,8.98
2023-03-12T16:51:59.176Z,9.43
2023-03-12T16:55:04.879Z,6.82
2023-03-12T16:58:14.033Z,7.05
2023-03-12T17:01:22.301Z,7.97
2023-03-12T17:04:28.500Z,6.38
2023-03-12T17:07:34.150Z,8.38
2023-03-12T17:10:39.769Z,8.30
2023-03-12T17:13:49.189Z,12.77
2023-03-12T17:16:55.549Z,16.90
2023-03-12T17:20:00.981Z,11.93
2023-03-12T17:23:07.143Z,9.13
2023-03-12T17:26:12.599Z,12.20
2023-03-12T17:29:18.373Z,10.55
2023-03-12T17:32:24.436Z,9.40
2023-03-12T17:35:30.803Z,5.00
2023-03-12T17:38:37.100Z,15.63
2023-03-12T17:41:42.853Z,7.65
2023-03-12T17:44:48.232Z,8.95
2023-03-12T17:47:53.652Z,12.88
2023-03-12T17:50:58.796Z,10.35
2023-03-12T17:54:04.703Z,5.38
2023-03-12T17:57:10.009Z,10.05
2023-03-12T18:00:16.007Z,8.77
2023-03-12T18:03:21.478Z,9.25
2023-03-12T18:06:26.839Z,5.38
2023-03-12T18:09:31.994Z,7.68
2023-03-12T18:12:40.735Z,9.52
2023-03-12T18:15:54.958Z,9.43
2023-03-12T18:18:59.940Z,11.70
2023-03-12T18:22:07.324Z,11.25
2023-03-12T18:25:13.230Z,10.35
2023-03-12T18:28:18.422Z,8.93
2023-03-12T18:31:23.755Z,13.52
2023-03-12T18:34:28.690Z,8.40
2023-03-12T18:37:34.693Z,12.07
2023-03-12T18:40:39.958Z,8.68
2023-03-12T18:43:45.403Z,9.50
2023-03-12T18:46:54.193Z,7.72
2023-03-12T18:50:00.128Z,6.97
2023-03-12T18:53:05.765Z,9.10
2023-03-12T18:56:11.007Z,12.23
2023-03-12T18:59:16.506Z,6.50
2023-03-12T19:02:22.790Z,12.30
2023-03-12T19:05:28.377Z,8.27
2023-03-12T19:08:35.126Z,8.70
2023-03-12T19:11:40.783Z,6.47
2023-03-12T19:14:46.671Z,5.28
2023-03-12T19:17:52.769Z,8.85
2023-03-12T19:20:58.330Z,9.13
2023-03-12T19:24:03.595Z,6.90
2023-03-12T19:27:08.664Z,6.80
2023-03-12T19:30:14.517Z,10.00
2023-03-12T19:33:20.036Z,7.65
2023-03-12T19:36:25.646Z,11.32
2023-03-12T19:39:31.642Z,11.25
2023-03-12T19:42:37.510Z,12.35
2023-03-12T19:45:42.774Z,13.50
2023-03-12T19:48:48.100Z,9.13
2023-03-12T19:51:53.596Z,16.67
2023-03-12T19:55:04.687Z,13.15
2023-03-12T19:58:10.322Z,15.60
2023-03-12T20:01:15.275Z,8.98
2023-03-12T20:04:20.378Z,13.70
2023-03-12T20:07:25.992Z,9.93
2023-03-12T20:10:32.599Z,11.00
2023-03-12T20:13:39.308Z,9.57
2023-03-12T20:16:44.587Z,12.45
2023-03-12T20:19:50.146Z,6.10
2023-03-12T20:22:55.731Z,14.20
2023-03-12T20:26:01.158Z,7.15
2023-03-12T20:29:07.390Z,9.85
2023-03-12T20:32:16.106Z,7.97
2023-03-12T20:35:21.404Z,8.27
2023-03-12T20:38:26.953Z,11.35
2023-03-12T20:41:33.415Z,11.65
2023-03-12T20:44:39.119Z,13.63
2023-03-12T20:47:44.768Z,8.65
2023-03-12T20:50:51.203Z,8.43
2023-03-12T20:53:57.580Z,14.30
2023-03-12T20:57:02.952Z,8.57
2023-03-12T21:00:09.561Z,12.88
2023-03-12T21:03:15.222Z,16.42
2023-03-12T21:06:20.740Z,10.25
2023-03-12T21:09:26.428Z,12.57
2023-03-12T21:12:32.133Z,9.40
2023-03-12T21:15:38.399Z,10.73
2023-03-12T21:18:43.974Z,8.27
2023-03-12T21:21:49.588Z,8.88
2023-03-12T21:24:54.949Z,8.45
2023-03-12T21:28:00.451Z,11.85
2023-03-12T21:31:08.101Z,10.73
2023-03-12T21:34:13.393Z,9.82
2023-03-12T21:37:19.054Z,11.68
2023-03-12T21:40:24.603Z,11.07
2023-03-12T21:43:30.370Z,5.95
2023-03-12T21:46:36.180Z,9.60
2023-03-12T21:49:41.508Z,7.50
2023-03-12T21:52:51.412Z,7.15
2023-03-12T21:55:58.614Z,5.32
2023-03-12T21:59:04.169Z,8.13
2023-03-12T22:02:13.149Z,6.82
2023-03-12T22:05:18.653Z,7.50
2023-03-12T22:08:24.577Z,8.68
2023-03-12T22:11:29.783Z,12.57
2023-03-12T22:14:34.911Z,12.13
2023-03-12T22:17:40.229Z,10.05
2023-03-12T22:20:52.506Z,20.15
2023-03-12T22:23:58.209Z,9.45
2023-03-12T22:27:06.952Z,10.32
2023-03-12T22:30:15.113Z,9.90
2023-03-12T22:33:20.354Z,9.73
2023-03-12T22:36:25.660Z,12.82
2023-03-12T22:39:31.310Z,10.95
2023-03-12T22:42:41.437Z,11.02
2023-03-12T22:45:46.913Z,12.45
2023-03-12T22:48:55.287Z,9.48
2023-03-12T22:52:00.670Z,7.97
2023-03-12T22:55:07.051Z,10.52
2023-03-12T22:58:12.387Z,9.15
2023-03-12T23:01:21.317Z,9.90
2023-03-12T23:04:27.040Z,8.57
2023-03-12T23:07:32.504Z,9.80
2023-03-12T23:10:38.056Z,11.65
2023-03-12T23:13:44.989Z,14.65
2023-03-12T23:16:50.238Z,12.70
2023-03-12T23:19:55.797Z,10.73
2023-03-12T23:23:00.924Z,11.02
2023-03-12T23:26:06.945Z,9.98
2023-03-12T23:29:13.016Z,12.63
2023-03-12T23:32:18.625Z,13.98
2023-03-12T23:35:24.343Z,12.60
2023-03-12T23:38:30.871Z,12.85
2023-03-12T23:41:38.099Z,13.68
2023-03-12T23:44:43.734Z,13.07
2023-03-12T23:47:48.788Z,16.17
2023-03-12T23:50:54.734Z,13.05
2023-03-12T23:54:05.712Z,12.65
2023-03-12T23:57:10.955Z,16.58
